createdAt,value
2023-10-10T00:01:23.806Z,14.40
2023-10-10T00:03:54.674Z,14.40
2023-10-10T00:06:25.800Z,14.50
2023-10-10T00:08:56.254Z,14.40
2023-10-10T00:11:27.627Z,14.30
2023-10-10T00:14:01.901Z,14.20
2023-10-10T00:16:34.954Z,14.30
2023-10-10T00:19:14.087Z,14.20
2023-10-10T00:21:44.609Z,14.10
2023-10-10T00:24:16.022Z,14.00
2023-10-10T00:26:46.384Z,13.90
2023-10-10T00:29:19.104Z,13.80
2023-10-10T00:31:51.104Z,13.70
2023-10-10T00:34:21.507Z,13.80
2023-10-10T00:36:53.421Z,13.90
2023-10-10T00:39:25.615Z,13.90
2023-10-10T00:41:57.484Z,13.90
2023-10-10T00:44:28.858Z,14.00
2023-10-10T00:47:03.317Z,13.90
2023-10-10T00:49:35.661Z,14.00
2023-10-10T00:52:08.402Z,14.00
2023-10-10T00:54:43.518Z,14.10
2023-10-10T00:57:17.201Z,14.40
2023-10-10T00:59:49.655Z,14.40
2023-10-10T01:02:22.600Z,14.10
2023-10-10T01:04:58.548Z,14.00
2023-10-10T01:07:30.135Z,14.00
2023-10-10T01:10:02.121Z,13.90
2023-10-10T01:12:35.660Z,13.90
2023-10-10T01:15:11.663Z,13.90
2023-10-10T01:17:44.404Z,13.90
2023-10-10T01:20:21.686Z,13.90
2023-10-10T01:22:54.223Z,14.00
2023-10-10T01:28:08.928Z,13.60
2023-10-10T01:31:00.595Z,13.60
2023-10-10T01:33:38.353Z,13.70
2023-10-10T01:36:14.260Z,13.70
2023-10-10T01:42:03.752Z,13.70
2023-10-10T01:44:35.863Z,13.70
2023-10-10T01:47:08.224Z,13.70
2023-10-10T01:49:38.654Z,13.60
2023-10-10T01:52:10.828Z,13.40
2023-10-10T01:57:25.437Z,13.20
2023-10-10T01:59:57.964Z,13.30
2023-10-10T02:02:30.339Z,13.80
2023-10-10T02:05:01.888Z,14.20
2023-10-10T02:07:33.569Z,14.20
2023-10-10T02:10:15.261Z,14.10
2023-10-10T02:15:28.147Z,14.20
2023-10-10T02:18:00.116Z,13.60
2023-10-10T02:20:39.524Z,13.40
2023-10-10T02:25:51.630Z,13.10
2023-10-10T02:28:22.596Z,13.10
2023-10-10T02:30:54.316Z,13.10
2023-10-10T02:33:29.274Z,13.20
2023-10-10T02:36:00.249Z,13.20
2023-10-10T02:38:36.254Z,13.20
2023-10-10T02:41:19.328Z,13.20
2023-10-10T02:43:57.710Z,13.20
2023-10-10T02:46:36.993Z,13.00
2023-10-10T02:49:15.162Z,13.10
2023-10-10T02:51:48.853Z,13.10
2023-10-10T02:54:25.448Z,13.10
2023-10-10T02:56:58.280Z,13.20
2023-10-10T02:59:32.792Z,13.20
2023-10-10T03:02:05.080Z,13.20
2023-10-10T03:04:53.414Z,13.10
2023-10-10T03:07:30.197Z,12.90
2023-10-10T03:10:10.709Z,12.70
2023-10-10T03:12:43.591Z,12.70
2023-10-10T03:15:15.827Z,12.60
2023-10-10T03:17:48.175Z,12.60
2023-10-10T03:20:30.511Z,12.60
2023-10-10T03:25:48.725Z,12.80
2023-10-10T03:31:08.053Z,12.70
2023-10-10T03:36:27.068Z,12.60
2023-10-10T03:39:18.327Z,12.50
2023-10-10T03:42:06.390Z,12.30
2023-10-10T03:44:54.184Z,12.20
2023-10-10T03:47:43.729Z,12.20
2023-10-10T03:50:32.773Z,12.30
2023-10-10T03:53:20.856Z,12.20
2023-10-10T03:56:08.742Z,12.30
2023-10-10T03:58:56.655Z,12.10
2023-10-10T04:01:44.791Z,12.10
2023-10-10T04:04:32.674Z,12.20
2023-10-10T04:07:20.420Z,12.40
2023-10-10T04:10:08.204Z,12.30
2023-10-10T04:12:56.299Z,12.30
2023-10-10T04:15:44.241Z,12.30
2023-10-10T04:18:32.458Z,12.30
2023-10-10T04:21:26.275Z,12.40
2023-10-10T04:24:31.077Z,12.30
2023-10-10T04:30:08.770Z,12.50
2023-10-10T04:35:38.628Z,12.30
2023-10-10T04:38:26.721Z,12.30
2023-10-10T04:41:14.522Z,12.20
2023-10-10T04:44:02.494Z,12.10
2023-10-10T04:47:03.925Z,12.20
2023-10-10T04:49:51.850Z,12.10
2023-10-10T04:52:39.626Z,12.10
2023-10-10T04:55:28.223Z,12.00
2023-10-10T04:58:16.067Z,12.00
2023-10-10T05:01:03.918Z,11.90
2023-10-10T05:03:51.756Z,11.90
2023-10-10T05:06:39.705Z,12.00
2023-10-10T05:09:27.562Z,11.90
2023-10-10T05:12:15.378Z,11.90
2023-10-10T05:15:03.598Z,11.90
2023-10-10T05:17:51.944Z,11.90
2023-10-10T05:20:40.052Z,11.70
2023-10-10T05:23:27.954Z,11.70
2023-10-10T05:25:59.953Z,11.70
2023-10-10T05:28:32.128Z,11.70
2023-10-10T05:31:05.006Z,11.70
2023-10-10T05:33:37.326Z,11.70
2023-10-10T05:36:08.542Z,11.60
2023-10-10T05:41:20.387Z,11.70
2023-10-10T05:43:51.685Z,11.80
2023-10-10T05:46:22.564Z,12.00
2023-10-10T05:48:52.962Z,12.00
2023-10-10T05:51:25.643Z,11.90
2023-10-10T05:53:56.221Z,11.90
2023-10-10T05:56:26.643Z,11.90
2023-10-10T05:58:58.079Z,11.90
2023-10-10T06:01:28.753Z,11.80
2023-10-10T06:04:00.046Z,11.80
2023-10-10T06:06:30.409Z,11.80
2023-10-10T06:09:02.100Z,11.60
2023-10-10T06:11:34.139Z,11.60
2023-10-10T06:14:06.157Z,11.70
2023-10-10T06:16:37.328Z,11.80
2023-10-10T06:19:07.922Z,11.70
2023-10-10T06:21:40.779Z,11.70
2023-10-10T06:24:13.207Z,11.70
2023-10-10T06:26:46.116Z,11.70
2023-10-10T06:29:17.303Z,11.70
2023-10-10T06:31:47.790Z,11.70
2023-10-10T06:34:24.300Z,11.80
2023-10-10T06:36:55.963Z,11.80
2023-10-10T06:42:06.614Z,12.00
2023-10-10T06:44:38.967Z,11.90
2023-10-10T06:47:13.667Z,11.90
2023-10-10T06:49:50.491Z,11.80
2023-10-10T06:52:20.864Z,11.80
2023-10-10T06:57:42.785Z,12.10
2023-10-10T07:00:18.249Z,12.20
2023-10-10T07:05:28.908Z,12.40
2023-10-10T07:08:00.268Z,12.60
2023-10-10T07:10:41.893Z,12.70
2023-10-10T07:15:53.614Z,13.00
2023-10-10T07:18:25.068Z,13.10
2023-10-10T07:21:08.041Z,13.20
2023-10-10T07:23:40.701Z,13.40
2023-10-10T07:26:20.879Z,13.70
2023-10-10T07:31:33.314Z,13.90
2023-10-10T07:34:05.495Z,14.10
2023-10-10T07:36:37.439Z,14.30
2023-10-10T07:39:45.128Z,14.40
2023-10-10T07:44:56.021Z,14.70
2023-10-10T07:47:31.916Z,14.80
2023-10-10T07:50:05.170Z,14.90
2023-10-10T07:52:37.013Z,15.00
2023-10-10T07:55:09.280Z,15.10
2023-10-10T08:00:21.763Z,15.30
2023-10-10T08:05:31.540Z,15.40
2023-10-10T08:10:41.239Z,15.80
2023-10-10T08:13:12.110Z,15.90
2023-10-10T08:15:52.101Z,16.10
2023-10-10T08:18:33.740Z,16.20
2023-10-10T08:21:10.194Z,16.30
2023-10-10T08:23:44.307Z,16.40
2023-10-10T08:26:19.551Z,16.40
2023-10-10T08:28:51.202Z,16.60
2023-10-10T08:31:23.496Z,16.90
2023-10-10T08:33:54.427Z,16.90
2023-10-10T08:36:28.052Z,16.90
2023-10-10T08:39:00.324Z,17.20
2023-10-10T08:41:31.895Z,17.30
2023-10-10T08:46:45.158Z,17.50
2023-10-10T08:49:16.389Z,17.50
2023-10-10T08:51:49.822Z,17.70
2023-10-10T08:54:21.956Z,17.80
2023-10-10T08:57:02.143Z,17.90
2023-10-10T08:59:33.869Z,17.80
2023-10-10T09:02:15.257Z,17.90
2023-10-10T09:04:45.698Z,18.00
2023-10-10T09:07:21.935Z,18.00
2023-10-10T09:10:01.299Z,18.00
2023-10-10T09:12:34.056Z,18.00
2023-10-10T09:17:46.727Z,18.30
2023-10-10T09:20:27.183Z,18.50
2023-10-10T09:25:43.815Z,18.50
2023-10-10T09:28:17.650Z,18.60
2023-10-10T09:30:52.032Z,18.60
2023-10-10T09:33:26.131Z,18.80
2023-10-10T09:36:00.451Z,19.00
2023-10-10T09:38:35.642Z,19.00
2023-10-10T09:41:19.255Z,19.00
2023-10-10T09:46:33.698Z,19.40
2023-10-10T09:49:20.264Z,19.60
2023-10-10T09:52:08.757Z,19.80
2023-10-10T09:54:40.611Z,20.10
2023-10-10T09:57:11.785Z,20.30
2023-10-10T09:59:43.463Z,20.20
2023-10-10T10:02:16.363Z,20.30
2023-10-10T10:04:48.438Z,20.50
2023-10-10T10:07:27.630Z,20.50
2023-10-10T10:10:23.646Z,20.70
2023-10-10T10:16:08.495Z,20.70
2023-10-10T10:18:46.315Z,21.00
2023-10-10T10:21:32.733Z,21.30
2023-10-10T10:24:17.506Z,21.50
2023-10-10T10:26:51.655Z,21.50
2023-10-10T10:29:30.662Z,21.60
2023-10-10T10:32:07.262Z,22.00
2023-10-10T10:34:38.077Z,22.10
2023-10-10T10:37:12.109Z,22.20
2023-10-10T10:39:50.011Z,22.30
2023-10-10T10:42:23.794Z,22.50
2023-10-10T10:44:56.534Z,22.30
2023-10-10T10:50:44.934Z,22.00
2023-10-10T10:56:03.457Z,22.40
2023-10-10T10:58:33.840Z,22.60
2023-10-10T11:01:09.150Z,22.80
2023-10-10T11:03:42.395Z,22.90
2023-10-10T11:06:14.737Z,23.10
2023-10-10T11:11:30.890Z,23.40
2023-10-10T11:14:05.502Z,23.60
2023-10-10T11:16:38.571Z,23.80
2023-10-10T11:19:15.895Z,23.70
2023-10-10T11:21:50.157Z,23.80
2023-10-10T11:24:24.042Z,24.40
2023-10-10T11:26:58.222Z,24.60
2023-10-10T11:29:29.412Z,24.90
2023-10-10T11:32:04.311Z,24.90
2023-10-10T11:34:44.201Z,24.60
2023-10-10T11:37:24.432Z,25.20
2023-10-10T11:39:57.538Z,25.70
2023-10-10T11:42:30.270Z,25.80
2023-10-10T11:45:11.401Z,26.00
2023-10-10T11:50:24.354Z,26.10
2023-10-10T11:55:35.728Z,26.70
2023-10-10T11:58:09.211Z,26.80
2023-10-10T12:00:42.075Z,26.60
2023-10-10T12:03:12.639Z,26.20
2023-10-10T12:05:53.017Z,25.90
2023-10-10T12:08:24.993Z,26.20
2023-10-10T12:10:58.069Z,26.60
2023-10-10T12:13:35.205Z,26.50
2023-10-10T12:16:10.972Z,26.30
2023-10-10T12:18:46.952Z,26.30
2023-10-10T12:21:22.470Z,27.30
2023-10-10T12:24:00.604Z,27.00
2023-10-10T12:26:28.726Z,27.40
2023-10-10T12:28:59.199Z,27.30
2023-10-10T12:31:31.544Z,27.20
2023-10-10T12:36:41.710Z,27.30
2023-10-10T12:39:13.627Z,27.50
2023-10-10T12:41:47.899Z,27.40
2023-10-10T12:44:18.854Z,27.40
2023-10-10T12:46:49.421Z,27.50
2023-10-10T12:49:20.423Z,27.80
2023-10-10T12:51:51.279Z,27.70
2023-10-10T12:54:22.973Z,27.70
2023-10-10T12:56:55.196Z,27.20
2023-10-10T12:59:28.736Z,27.00
2023-10-10T13:02:00.654Z,27.70
2023-10-10T13:04:32.620Z,27.40
2023-10-10T13:07:04.952Z,27.30
2023-10-10T13:09:38.720Z,26.60
2023-10-10T13:12:10.797Z,26.40
2023-10-10T13:14:43.438Z,26.10
2023-10-10T13:17:31.099Z,26.30
2023-10-10T13:20:03.644Z,26.10
2023-10-10T13:22:33.936Z,26.00
2023-10-10T13:25:06.750Z,25.90
2023-10-10T13:27:37.113Z,25.90
2023-10-10T13:30:10.683Z,25.80
2023-10-10T13:32:43.017Z,26.00
2023-10-10T13:35:14.145Z,25.80
2023-10-10T13:37:45.070Z,25.90
2023-10-10T13:40:18.926Z,25.70
2023-10-10T13:45:29.610Z,25.60
2023-10-10T13:50:46.696Z,26.10
2023-10-10T13:53:17.950Z,26.10
2023-10-10T13:55:48.898Z,25.90
2023-10-10T14:01:00.477Z,25.80
2023-10-10T14:03:33.241Z,25.70
2023-10-10T14:06:05.510Z,25.70
2023-10-10T14:08:36.159Z,25.50
2023-10-10T14:11:06.605Z,25.30
2023-10-10T14:13:38.191Z,25.20
2023-10-10T14:16:08.643Z,25.00
2023-10-10T14:18:44.188Z,24.70
2023-10-10T14:21:15.104Z,24.50
2023-10-10T14:23:47.134Z,24.60
2023-10-10T14:26:20.035Z,24.40
2023-10-10T14:28:52.440Z,24.20
2023-10-10T14:31:25.299Z,24.20
2023-10-10T14:36:37.425Z,24.20
2023-10-10T14:39:09.605Z,24.40
2023-10-10T14:41:41.616Z,24.60
2023-10-10T14:44:13.646Z,24.50
2023-10-10T14:46:44.126Z,24.60
2023-10-10T14:49:18.962Z,24.30
2023-10-10T14:51:50.359Z,24.20
2023-10-10T14:54:20.771Z,24.20
2023-10-10T14:56:51.857Z,24.20
2023-10-10T14:59:25.405Z,24.10
2023-10-10T15:01:58.606Z,24.10
2023-10-10T15:04:30.588Z,24.00
2023-10-10T15:07:04.592Z,23.90
2023-10-10T15:09:37.008Z,23.80
2023-10-10T15:12:09.440Z,23.80
2023-10-10T15:14:40.103Z,23.80
2023-10-10T15:17:11.308Z,23.70
2023-10-10T15:19:43.294Z,23.70
2023-10-10T15:24:56.109Z,23.70
2023-10-10T15:27:26.531Z,23.60
2023-10-10T15:29:56.926Z,23.60
2023-10-10T15:32:29.088Z,23.60
2023-10-10T15:35:00.176Z,23.60
2023-10-10T15:37:32.429Z,23.60
2023-10-10T15:40:03.154Z,23.50
2023-10-10T15:42:34.702Z,23.50
2023-10-10T15:45:06.999Z,23.40
2023-10-10T15:47:37.824Z,23.40
2023-10-10T15:50:09.487Z,23.40
2023-10-10T15:52:42.482Z,23.30
2023-10-10T15:55:14.027Z,23.30
2023-10-10T16:00:28.019Z,23.10
2023-10-10T16:02:58.452Z,23.10
2023-10-10T16:05:29.301Z,22.90
2023-10-10T16:08:09.042Z,22.70
2023-10-10T16:10:36.399Z,22.60
2023-10-10T16:13:11.202Z,22.40
2023-10-10T16:15:42.883Z,22.30
2023-10-10T16:18:15.730Z,22.20
2023-10-10T16:20:47.570Z,22.10
2023-10-10T16:23:20.483Z,22.00
2023-10-10T16:25:51.921Z,21.80
2023-10-10T16:28:24.160Z,21.80
2023-10-10T16:30:55.389Z,21.70
2023-10-10T16:33:26.778Z,21.60
2023-10-10T16:35:57.922Z,21.40
2023-10-10T16:38:30.798Z,21.20
2023-10-10T16:41:03.465Z,21.10
2023-10-10T16:43:43.108Z,21.00
2023-10-10T16:46:13.444Z,20.90
2023-10-10T16:48:46.009Z,20.90
2023-10-10T16:51:17.638Z,20.80
2023-10-10T16:56:28.700Z,20.60
2023-10-10T16:58:59.251Z,20.50
2023-10-10T17:01:29.745Z,20.40
2023-10-10T17:04:01.770Z,20.40
2023-10-10T17:06:33.445Z,20.40
2023-10-10T17:09:05.793Z,20.20
2023-10-10T17:11:36.392Z,20.10
2023-10-10T17:14:06.876Z,19.90
2023-10-10T17:16:37.575Z,19.70
2023-10-10T17:19:17.071Z,19.50
2023-10-10T17:21:43.688Z,19.40
2023-10-10T17:24:15.767Z,19.20
2023-10-10T17:26:46.319Z,19.10
2023-10-10T17:29:17.058Z,19.00
2023-10-10T17:31:47.719Z,19.10
2023-10-10T17:34:19.081Z,19.10
2023-10-10T17:36:51.514Z,19.20
2023-10-10T17:39:22.042Z,19.00
2023-10-10T17:41:52.516Z,19.00
2023-10-10T17:44:22.983Z,18.90
2023-10-10T17:46:53.797Z,18.80
2023-10-10T17:49:24.189Z,18.80
2023-10-10T17:51:55.961Z,18.70
2023-10-10T17:54:26.642Z,18.70
2023-10-10T17:56:57.766Z,18.70
2023-10-10T17:59:28.442Z,18.70
2023-10-10T18:01:58.982Z,18.60
2023-10-10T18:04:31.389Z,18.60
2023-10-10T18:07:01.977Z,18.50
2023-10-10T18:09:33.966Z,18.50
2023-10-10T18:12:04.489Z,18.40
2023-10-10T18:14:36.398Z,18.40
2023-10-10T18:17:08.419Z,18.30
2023-10-10T18:19:40.690Z,18.30
2023-10-10T18:22:11.124Z,18.20
2023-10-10T18:24:41.567Z,18.10
2023-10-10T18:27:12.709Z,18.00
2023-10-10T18:29:43.238Z,17.90
2023-10-10T18:32:15.266Z,17.90
2023-10-10T18:34:45.673Z,17.90
2023-10-10T18:37:17.243Z,17.80
2023-10-10T18:39:48.046Z,17.70
2023-10-10T18:42:18.451Z,17.60
2023-10-10T18:44:49.762Z,17.50
2023-10-10T18:47:20.301Z,17.30
2023-10-10T18:49:50.765Z,17.30
2023-10-10T18:52:21.235Z,17.20
2023-10-10T18:54:52.734Z,17.20
2023-10-10T18:57:23.904Z,17.30
2023-10-10T19:02:36.152Z,17.40
2023-10-10T19:05:08.049Z,17.40
2023-10-10T19:07:40.040Z,17.10
2023-10-10T19:10:14.933Z,17.00
2023-10-10T19:12:46.985Z,16.90
2023-10-10T19:15:18.578Z,17.00
2023-10-10T19:17:50.425Z,17.10
2023-10-10T19:20:22.728Z,17.10
2023-10-10T19:22:56.456Z,17.20
2023-10-10T19:25:28.597Z,17.20
2023-10-10T19:30:40.768Z,17.20
2023-10-10T19:33:12.403Z,17.10
2023-10-10T19:35:45.493Z,17.10
2023-10-10T19:38:18.212Z,16.80
2023-10-10T19:40:49.811Z,16.50
2023-10-10T19:46:00.718Z,16.10
2023-10-10T19:48:31.319Z,16.10
2023-10-10T19:51:03.434Z,16.30
2023-10-10T19:53:34.151Z,16.40
2023-10-10T19:56:06.419Z,16.50
2023-10-10T19:58:37.167Z,16.60
2023-10-10T20:01:08.979Z,16.70
2023-10-10T20:03:41.121Z,16.70
2023-10-10T20:06:19.081Z,16.50
2023-10-10T20:08:52.820Z,16.40
2023-10-10T20:11:23.626Z,16.50
2023-10-10T20:13:54.453Z,16.40
2023-10-10T20:16:27.299Z,16.20
2023-10-10T20:19:00.154Z,16.10
2023-10-10T20:21:30.933Z,15.90
2023-10-10T20:24:01.291Z,15.90
2023-10-10T20:26:32.162Z,15.90
2023-10-10T20:29:02.922Z,15.80
2023-10-10T20:31:33.874Z,15.80
2023-10-10T20:36:43.388Z,15.80
2023-10-10T20:39:15.565Z,15.70
2023-10-10T20:41:48.436Z,15.50
2023-10-10T20:44:18.959Z,15.50
2023-10-10T20:46:51.595Z,15.40
2023-10-10T20:49:22.039Z,15.50
2023-10-10T20:51:53.950Z,15.50
2023-10-10T20:54:24.377Z,15.60
2023-10-10T20:56:54.761Z,15.70
2023-10-10T20:59:26.461Z,15.70
2023-10-10T21:01:57.617Z,15.70
2023-10-10T21:04:28.591Z,15.60
2023-10-10T21:06:59.010Z,15.60
2023-10-10T21:09:31.184Z,15.40
2023-10-10T21:12:03.621Z,15.20
2023-10-10T21:17:17.820Z,15.10
2023-10-10T21:19:49.322Z,15.10
2023-10-10T21:22:20.997Z,15.00
2023-10-10T21:24:52.040Z,15.10
2023-10-10T21:27:25.064Z,15.10
2023-10-10T21:29:56.038Z,15.10
2023-10-10T21:32:27.045Z,15.10
2023-10-10T21:37:38.929Z,15.00
2023-10-10T21:40:14.148Z,15.00
2023-10-10T21:42:47.292Z,15.00
2023-10-10T21:47:58.359Z,15.10
2023-10-10T21:50:30.695Z,15.10
2023-10-10T21:53:01.361Z,15.00
2023-10-10T21:55:32.286Z,15.00
2023-10-10T22:00:52.753Z,15.00
2023-10-10T22:03:23.747Z,15.00
2023-10-10T22:05:54.325Z,14.90
2023-10-10T22:08:27.147Z,14.70
2023-10-10T22:10:59.799Z,14.60
2023-10-10T22:16:11.879Z,14.60
2023-10-10T22:18:42.941Z,14.70
2023-10-10T22:21:15.379Z,14.80
2023-10-10T22:26:25.853Z,14.70
2023-10-10T22:31:35.635Z,14.70
2023-10-10T22:34:07.589Z,14.70
2023-10-10T22:36:39.728Z,14.60
2023-10-10T22:39:10.456Z,14.40
2023-10-10T22:41:41.452Z,14.30
2023-10-10T22:44:13.422Z,14.40
2023-10-10T22:46:45.089Z,14.30
2023-10-10T22:49:17.648Z,14.40
2023-10-10T22:51:48.256Z,14.40
2023-10-10T22:54:20.880Z,14.20
2023-10-10T22:56:51.228Z,14.20
2023-10-10T22:59:22.460Z,14.40
2023-10-10T23:01:54.430Z,14.50
2023-10-10T23:07:04.750Z,14.40
2023-10-10T23:09:36.719Z,14.30
2023-10-10T23:12:09.672Z,14.30
2023-10-10T23:17:19.710Z,14.20
2023-10-10T23:19:50.067Z,14.10
2023-10-10T23:22:21.118Z,14.20
2023-10-10T23:24:53.330Z,14.30
2023-10-10T23:27:23.773Z,14.30
2023-10-10T23:29:54.288Z,14.10
2023-10-10T23:32:24.655Z,14.10
2023-10-10T23:34:55.103Z,14.10
2023-10-10T23:37:25.862Z,14.00
2023-10-10T23:39:56.213Z,13.90
2023-10-10T23:42:26.573Z,13.90
2023-10-10T23:44:58.577Z,14.00
2023-10-10T23:47:29.045Z,14.00
2023-10-10T23:50:01.029Z,13.90
2023-10-10T23:52:33.331Z,13.80
2023-10-10T23:55:03.946Z,13.90
2023-10-10T23:57:34.413Z,13.80
